sensor_id;sensor_type;location;lat;lon;timestamp;P1;durP1;ratioP1;P2;durP2;ratioP2
9465;SDS011;4771;48.726;9.006;2022-09-30T00:01:25;5.47;;;4.13;;
9465;SDS011;4771;48.726;9.006;2022-09-30T00:03:53;7.07;;;4.10;;
9465;SDS011;4771;48.726;9.006;2022-09-30T00:06:20;4.87;;;3.73;;
9465;SDS011;4771;48.726;9.006;2022-09-30T00:08:49;4.87;;;3.40;;
9465;SDS011;4771;48.726;9.006;2022-09-30T00:11:18;4.00;;;3.30;;
9465;SDS011;4771;48.726;9.006;2022-09-30T00:13:46;5.23;;;3.67;;
9465;SDS011;4771;48.726;9.006;2022-09-30T00:16:16;7.70;;;4.07;;
9465;SDS011;4771;48.726;9.006;2022-09-30T00:18:44;5.97;;;4.10;;
9465;SDS011;4771;48.726;9.006;2022-09-30T00:21:11;6.87;;;5.27;;
9465;SDS011;4771;48.726;9.006;2022-09-30T00:23:39;8.03;;;4.60;;
9465;SDS011;4771;48.726;9.006;2022-09-30T00:26:09;10.87;;;4.90;;
9465;SDS011;4771;48.726;9.006;2022-09-30T00:28:38;7.27;;;4.53;;
9465;SDS011;4771;48.726;9.006;2022-09-30T00:31:07;8.93;;;4.67;;
9465;SDS011;4771;48.726;9.006;2022-09-30T00:33:36;6.67;;;4.80;;
9465;SDS011;4771;48.726;9.006;2022-09-30T00:36:03;8.33;;;5.03;;
9465;SDS011;4771;48.726;9.006;2022-09-30T00:38:31;8.53;;;5.07;;
9465;SDS011;4771;48.726;9.006;2022-09-30T00:40:58;8.43;;;5.30;;
9465;SDS011;4771;48.726;9.006;2022-09-30T00:43:40;5.50;;;4.50;;
9465;SDS011;4771;48.726;9.006;2022-09-30T00:46:14;5.17;;;4.50;;
9465;SDS011;4771;48.726;9.006;2022-09-30T00:48:44;6.30;;;4.47;;
9465;SDS011;4771;48.726;9.006;2022-09-30T00:51:18;5.20;;;4.00;;
9465;SDS011;4771;48.726;9.006;2022-09-30T00:53:51;4.50;;;4.00;;
9465;SDS011;4771;48.726;9.006;2022-09-30T00:56:21;5.90;;;4.00;;
9465;SDS011;4771;48.726;9.006;2022-09-30T00:58:52;6.13;;;4.27;;
9465;SDS011;4771;48.726;9.006;2022-09-30T01:01:24;5.97;;;4.17;;
9465;SDS011;4771;48.726;9.006;2022-09-30T01:03:52;6.67;;;4.90;;
9465;SDS011;4771;48.726;9.006;2022-09-30T01:06:22;6.67;;;4.53;;
9465;SDS011;4771;48.726;9.006;2022-09-30T01:08:49;6.90;;;4.77;;
9465;SDS011;4771;48.726;9.006;2022-09-30T01:11:17;7.10;;;4.57;;
9465;SDS011;4771;48.726;9.006;2022-09-30T01:13:44;6.20;;;4.90;;
9465;SDS011;4771;48.726;9.006;2022-09-30T01:16:20;6.70;;;5.27;;
9465;SDS011;4771;48.726;9.006;2022-09-30T01:19:01;8.90;;;4.97;;
9465;SDS011;4771;48.726;9.006;2022-09-30T01:27:43;7.80;;;5.33;;
9465;SDS011;4771;48.726;9.006;2022-09-30T01:30:33;9.87;;;5.90;;
9465;SDS011;4771;48.726;9.006;2022-09-30T01:33:12;8.93;;;5.20;;
9465;SDS011;4771;48.726;9.006;2022-09-30T01:35:50;9.60;;;5.47;;
9465;SDS011;4771;48.726;9.006;2022-09-30T01:38:32;7.10;;;5.30;;
9465;SDS011;4771;48.726;9.006;2022-09-30T01:41:12;6.50;;;4.90;;
9465;SDS011;4771;48.726;9.006;2022-09-30T01:43:48;6.63;;;4.60;;
9465;SDS011;4771;48.726;9.006;2022-09-30T01:46:29;9.13;;;5.40;;
9465;SDS011;4771;48.726;9.006;2022-09-30T01:49:03;9.40;;;5.23;;
9465;SDS011;4771;48.726;9.006;2022-09-30T01:51:38;6.83;;;5.03;;
9465;SDS011;4771;48.726;9.006;2022-09-30T01:54:08;10.63;;;5.50;;
9465;SDS011;4771;48.726;9.006;2022-09-30T01:56:42;8.30;;;5.30;;
9465;SDS011;4771;48.726;9.006;2022-09-30T01:59:13;5.87;;;4.87;;
9465;SDS011;4771;48.726;9.006;2022-09-30T02:01:46;7.60;;;5.37;;
9465;SDS011;4771;48.726;9.006;2022-09-30T02:04:17;6.53;;;5.30;;
9465;SDS011;4771;48.726;9.006;2022-09-30T02:06:51;7.43;;;5.57;;
9465;SDS011;4771;48.726;9.006;2022-09-30T02:09:20;9.77;;;5.00;;
9465;SDS011;4771;48.726;9.006;2022-09-30T02:11:50;7.40;;;5.33;;
9465;SDS011;4771;48.726;9.006;2022-09-30T02:14:22;6.30;;;5.00;;
9465;SDS011;4771;48.726;9.006;2022-09-30T02:16:56;10.80;;;5.27;;
9465;SDS011;4771;48.726;9.006;2022-09-30T02:19:28;9.53;;;5.03;;
9465;SDS011;4771;48.726;9.006;2022-09-30T02:21:59;7.27;;;5.33;;
9465;SDS011;4771;48.726;9.006;2022-09-30T02:24:30;6.87;;;5.33;;
9465;SDS011;4771;48.726;9.006;2022-09-30T02:27:01;5.80;;;5.20;;
9465;SDS011;4771;48.726;9.006;2022-09-30T02:29:31;8.73;;;4.80;;
9465;SDS011;4771;48.726;9.006;2022-09-30T02:32:04;6.33;;;4.90;;
9465;SDS011;4771;48.726;9.006;2022-09-30T02:34:37;5.50;;;4.73;;
9465;SDS011;4771;48.726;9.006;2022-09-30T02:37:10;6.70;;;5.03;;
9465;SDS011;4771;48.726;9.006;2022-09-30T02:39:40;6.97;;;4.83;;
9465;SDS011;4771;48.726;9.006;2022-09-30T02:42:13;8.37;;;5.17;;
9465;SDS011;4771;48.726;9.006;2022-09-30T02:44:45;7.87;;;4.80;;
9465;SDS011;4771;48.726;9.006;2022-09-30T02:47:15;6.97;;;5.07;;
9465;SDS011;4771;48.726;9.006;2022-09-30T02:49:51;7.23;;;5.60;;
9465;SDS011;4771;48.726;9.006;2022-09-30T02:52:25;5.80;;;4.87;;
9465;SDS011;4771;48.726;9.006;2022-09-30T02:55:01;6.43;;;5.17;;
9465;SDS011;4771;48.726;9.006;2022-09-30T02:57:41;7.13;;;4.93;;
9465;SDS011;4771;48.726;9.006;2022-09-30T03:00:20;5.87;;;4.90;;
9465;SDS011;4771;48.726;9.006;2022-09-30T03:02:48;8.10;;;4.63;;
9465;SDS011;4771;48.726;9.006;2022-09-30T03:05:19;7.97;;;4.97;;
9465;SDS011;4771;48.726;9.006;2022-09-30T03:07:46;7.10;;;5.13;;
9465;SDS011;4771;48.726;9.006;2022-09-30T03:10:13;6.63;;;5.00;;
9465;SDS011;4771;48.726;9.006;2022-09-30T03:12:44;7.60;;;4.93;;
9465;SDS011;4771;48.726;9.006;2022-09-30T03:15:32;9.10;;;5.40;;
9465;SDS011;4771;48.726;9.006;2022-09-30T03:18:15;7.57;;;5.10;;
9465;SDS011;4771;48.726;9.006;2022-09-30T03:21:03;8.67;;;5.77;;
9465;SDS011;4771;48.726;9.006;2022-09-30T03:23:53;7.00;;;5.50;;
9465;SDS011;4771;48.726;9.006;2022-09-30T03:26:34;7.50;;;5.50;;
9465;SDS011;4771;48.726;9.006;2022-09-30T03:29:08;9.20;;;5.63;;
9465;SDS011;4771;48.726;9.006;2022-09-30T03:31:46;6.80;;;5.33;;
9465;SDS011;4771;48.726;9.006;2022-09-30T03:34:24;6.83;;;5.20;;
9465;SDS011;4771;48.726;9.006;2022-09-30T03:36:58;6.57;;;5.40;;
9465;SDS011;4771;48.726;9.006;2022-09-30T03:39:30;7.57;;;6.07;;
9465;SDS011;4771;48.726;9.006;2022-09-30T03:42:06;7.07;;;5.70;;
9465;SDS011;4771;48.726;9.006;2022-09-30T03:44:39;10.17;;;6.20;;
9465;SDS011;4771;48.726;9.006;2022-09-30T03:47:10;9.87;;;6.23;;
9465;SDS011;4771;48.726;9.006;2022-09-30T03:49:42;8.67;;;6.03;;
9465;SDS011;4771;48.726;9.006;2022-09-30T03:52:14;6.20;;;5.60;;
9465;SDS011;4771;48.726;9.006;2022-09-30T03:54:45;9.60;;;5.80;;
9465;SDS011;4771;48.726;9.006;2022-09-30T03:57:14;6.37;;;5.13;;
9465;SDS011;4771;48.726;9.006;2022-09-30T03:59:41;8.37;;;5.40;;
9465;SDS011;4771;48.726;9.006;2022-09-30T04:02:09;8.70;;;5.70;;
9465;SDS011;4771;48.726;9.006;2022-09-30T04:04:37;8.73;;;6.00;;
9465;SDS011;4771;48.726;9.006;2022-09-30T04:07:07;10.63;;;6.20;;
9465;SDS011;4771;48.726;9.006;2022-09-30T04:09:34;11.67;;;6.47;;
9465;SDS011;4771;48.726;9.006;2022-09-30T04:12:01;8.80;;;5.40;;
9465;SDS011;4771;48.726;9.006;2022-09-30T04:14:28;7.87;;;5.70;;
9465;SDS011;4771;48.726;9.006;2022-09-30T04:16:55;8.80;;;5.70;;
9465;SDS011;4771;48.726;9.006;2022-09-30T04:19:22;8.80;;;6.03;;
9465;SDS011;4771;48.726;9.006;2022-09-30T04:21:49;8.97;;;6.03;;
9465;SDS011;4771;48.726;9.006;2022-09-30T04:24:18;10.67;;;6.30;;
9465;SDS011;4771;48.726;9.006;2022-09-30T04:26:45;8.70;;;5.90;;
9465;SDS011;4771;48.726;9.006;2022-09-30T04:29:12;6.63;;;5.93;;
9465;SDS011;4771;48.726;9.006;2022-09-30T04:31:39;9.47;;;6.07;;
9465;SDS011;4771;48.726;9.006;2022-09-30T04:34:06;8.87;;;5.80;;
9465;SDS011;4771;48.726;9.006;2022-09-30T04:36:34;8.43;;;6.27;;
9465;SDS011;4771;48.726;9.006;2022-09-30T04:39:01;7.97;;;6.27;;
9465;SDS011;4771;48.726;9.006;2022-09-30T04:41:30;8.23;;;6.17;;
9465;SDS011;4771;48.726;9.006;2022-09-30T04:43:58;8.00;;;6.70;;
9465;SDS011;4771;48.726;9.006;2022-09-30T04:46:30;9.13;;;6.60;;
9465;SDS011;4771;48.726;9.006;2022-09-30T04:48:58;8.53;;;6.53;;
9465;SDS011;4771;48.726;9.006;2022-09-30T04:51:25;11.20;;;6.87;;
9465;SDS011;4771;48.726;9.006;2022-09-30T04:53:54;6.63;;;5.63;;
9465;SDS011;4771;48.726;9.006;2022-09-30T04:56:21;11.70;;;6.00;;
9465;SDS011;4771;48.726;9.006;2022-09-30T04:58:49;7.37;;;5.90;;
9465;SDS011;4771;48.726;9.006;2022-09-30T05:01:17;10.63;;;6.13;;
9465;SDS011;4771;48.726;9.006;2022-09-30T05:03:44;8.73;;;6.00;;
9465;SDS011;4771;48.726;9.006;2022-09-30T05:06:12;17.07;;;6.30;;
9465;SDS011;4771;48.726;9.006;2022-09-30T05:08:39;7.03;;;5.53;;
9465;SDS011;4771;48.726;9.006;2022-09-30T05:11:09;7.50;;;5.60;;
9465;SDS011;4771;48.726;9.006;2022-09-30T05:13:39;8.13;;;5.70;;
9465;SDS011;4771;48.726;9.006;2022-09-30T05:16:08;8.33;;;5.90;;
9465;SDS011;4771;48.726;9.006;2022-09-30T05:18:36;8.93;;;6.20;;
9465;SDS011;4771;48.726;9.006;2022-09-30T05:21:03;8.83;;;6.93;;
9465;SDS011;4771;48.726;9.006;2022-09-30T05:23:31;12.93;;;6.73;;
9465;SDS011;4771;48.726;9.006;2022-09-30T05:25:58;8.87;;;6.57;;
9465;SDS011;4771;48.726;9.006;2022-09-30T05:28:26;9.47;;;6.90;;
9465;SDS011;4771;48.726;9.006;2022-09-30T05:30:55;7.63;;;6.10;;
9465;SDS011;4771;48.726;9.006;2022-09-30T05:33:25;9.00;;;6.47;;
9465;SDS011;4771;48.726;9.006;2022-09-30T05:35:53;8.50;;;6.17;;
9465;SDS011;4771;48.726;9.006;2022-09-30T05:38:23;11.63;;;6.43;;
9465;SDS011;4771;48.726;9.006;2022-09-30T05:40:50;14.23;;;8.07;;
9465;SDS011;4771;48.726;9.006;2022-09-30T05:43:17;9.63;;;7.07;;
9465;SDS011;4771;48.726;9.006;2022-09-30T05:45:50;8.73;;;6.10;;
9465;SDS011;4771;48.726;9.006;2022-09-30T05:48:18;9.03;;;6.70;;
9465;SDS011;4771;48.726;9.006;2022-09-30T05:50:46;9.43;;;6.70;;
9465;SDS011;4771;48.726;9.006;2022-09-30T05:53:15;12.13;;;6.57;;
9465;SDS011;4771;48.726;9.006;2022-09-30T05:55:44;9.37;;;7.07;;
9465;SDS011;4771;48.726;9.006;2022-09-30T05:58:11;9.80;;;6.90;;
9465;SDS011;4771;48.726;9.006;2022-09-30T06:00:39;10.90;;;7.07;;
9465;SDS011;4771;48.726;9.006;2022-09-30T06:03:06;10.37;;;6.57;;
9465;SDS011;4771;48.726;9.006;2022-09-30T06:05:33;8.97;;;6.40;;
9465;SDS011;4771;48.726;9.006;2022-09-30T06:08:02;10.90;;;7.57;;
9465;SDS011;4771;48.726;9.006;2022-09-30T06:10:31;14.57;;;7.80;;
9465;SDS011;4771;48.726;9.006;2022-09-30T06:12:59;15.57;;;9.20;;
9465;SDS011;4771;48.726;9.006;2022-09-30T06:15:27;15.87;;;9.17;;
9465;SDS011;4771;48.726;9.006;2022-09-30T06:17:54;16.17;;;9.47;;
9465;SDS011;4771;48.726;9.006;2022-09-30T06:20:21;14.07;;;9.20;;
9465;SDS011;4771;48.726;9.006;2022-09-30T06:22:48;15.87;;;8.80;;
9465;SDS011;4771;48.726;9.006;2022-09-30T06:25:16;11.17;;;8.67;;
9465;SDS011;4771;48.726;9.006;2022-09-30T06:27:43;15.33;;;8.80;;
9465;SDS011;4771;48.726;9.006;2022-09-30T06:30:11;15.17;;;9.20;;
9465;SDS011;4771;48.726;9.006;2022-09-30T06:32:38;13.93;;;9.47;;
9465;SDS011;4771;48.726;9.006;2022-09-30T06:35:06;15.43;;;9.53;;
9465;SDS011;4771;48.726;9.006;2022-09-30T06:37:34;12.57;;;9.07;;
9465;SDS011;4771;48.726;9.006;2022-09-30T06:40:02;10.43;;;9.00;;
9465;SDS011;4771;48.726;9.006;2022-09-30T06:42:30;12.37;;;9.13;;
9465;SDS011;4771;48.726;9.006;2022-09-30T06:44:57;11.77;;;8.97;;
9465;SDS011;4771;48.726;9.006;2022-09-30T06:47:24;9.87;;;8.83;;
9465;SDS011;4771;48.726;9.006;2022-09-30T06:49:51;12.73;;;9.20;;
9465;SDS011;4771;48.726;9.006;2022-09-30T06:52:22;13.60;;;9.63;;
9465;SDS011;4771;48.726;9.006;2022-09-30T06:54:49;13.40;;;8.93;;
9465;SDS011;4771;48.726;9.006;2022-09-30T06:57:17;11.03;;;9.20;;
9465;SDS011;4771;48.726;9.006;2022-09-30T06:59:47;13.13;;;9.20;;
9465;SDS011;4771;48.726;9.006;2022-09-30T07:02:14;13.63;;;9.20;;
9465;SDS011;4771;48.726;9.006;2022-09-30T07:04:42;16.37;;;9.90;;
9465;SDS011;4771;48.726;9.006;2022-09-30T07:07:09;11.90;;;8.87;;
9465;SDS011;4771;48.726;9.006;2022-09-30T07:09:36;12.97;;;8.33;;
9465;SDS011;4771;48.726;9.006;2022-09-30T07:12:02;13.03;;;8.50;;
9465;SDS011;4771;48.726;9.006;2022-09-30T07:14:30;10.60;;;8.47;;
9465;SDS011;4771;48.726;9.006;2022-09-30T07:16:59;12.33;;;8.53;;
9465;SDS011;4771;48.726;9.006;2022-09-30T07:19:28;10.53;;;9.47;;
9465;SDS011;4771;48.726;9.006;2022-09-30T07:21:55;13.43;;;9.73;;
9465;SDS011;4771;48.726;9.006;2022-09-30T07:24:42;12.90;;;9.43;;
9465;SDS011;4771;48.726;9.006;2022-09-30T07:27:09;12.07;;;9.47;;
9465;SDS011;4771;48.726;9.006;2022-09-30T07:29:37;13.20;;;10.05;;
9465;SDS011;4771;48.726;9.006;2022-09-30T07:32:06;12.75;;;10.07;;
9465;SDS011;4771;48.726;9.006;2022-09-30T07:34:33;13.70;;;10.30;;
9465;SDS011;4771;48.726;9.006;2022-09-30T07:37:00;15.43;;;9.90;;
9465;SDS011;4771;48.726;9.006;2022-09-30T07:39:27;14.60;;;10.10;;
9465;SDS011;4771;48.726;9.006;2022-09-30T07:41:55;14.65;;;11.02;;
9465;SDS011;4771;48.726;9.006;2022-09-30T07:44:22;14.27;;;9.87;;
9465;SDS011;4771;48.726;9.006;2022-09-30T07:46:50;14.13;;;10.60;;
9465;SDS011;4771;48.726;9.006;2022-09-30T07:49:20;14.97;;;10.67;;
9465;SDS011;4771;48.726;9.006;2022-09-30T07:51:50;13.85;;;10.27;;
9465;SDS011;4771;48.726;9.006;2022-09-30T07:54:19;14.85;;;9.95;;
9465;SDS011;4771;48.726;9.006;2022-09-30T07:56:47;14.57;;;9.70;;
9465;SDS011;4771;48.726;9.006;2022-09-30T07:59:16;13.23;;;10.00;;
9465;SDS011;4771;48.726;9.006;2022-09-30T08:01:43;13.67;;;9.63;;
9465;SDS011;4771;48.726;9.006;2022-09-30T08:04:11;17.95;;;9.82;;
9465;SDS011;4771;48.726;9.006;2022-09-30T08:06:40;16.45;;;10.93;;
9465;SDS011;4771;48.726;9.006;2022-09-30T08:09:09;14.25;;;10.38;;
9465;SDS011;4771;48.726;9.006;2022-09-30T08:11:37;13.93;;;10.57;;
9465;SDS011;4771;48.726;9.006;2022-09-30T08:14:05;16.95;;;11.43;;
9465;SDS011;4771;48.726;9.006;2022-09-30T08:16:32;15.02;;;10.45;;
9465;SDS011;4771;48.726;9.006;2022-09-30T08:19:00;12.50;;;9.88;;
9465;SDS011;4771;48.726;9.006;2022-09-30T08:21:28;14.18;;;9.68;;
9465;SDS011;4771;48.726;9.006;2022-09-30T08:23:56;16.02;;;10.68;;
9465;SDS011;4771;48.726;9.006;2022-09-30T08:26:23;16.83;;;10.98;;
9465;SDS011;4771;48.726;9.006;2022-09-30T08:28:50;16.48;;;11.93;;
9465;SDS011;4771;48.726;9.006;2022-09-30T08:31:18;18.30;;;10.43;;
9465;SDS011;4771;48.726;9.006;2022-09-30T08:33:45;14.63;;;10.55;;
9465;SDS011;4771;48.726;9.006;2022-09-30T08:36:13;12.10;;;9.95;;
9465;SDS011;4771;48.726;9.006;2022-09-30T08:38:41;11.63;;;9.63;;
9465;SDS011;4771;48.726;9.006;2022-09-30T08:41:16;11.52;;;8.82;;
9465;SDS011;4771;48.726;9.006;2022-09-30T08:43:56;12.60;;;9.43;;
9465;SDS011;4771;48.726;9.006;2022-09-30T08:46:34;13.30;;;9.27;;
9465;SDS011;4771;48.726;9.006;2022-09-30T08:49:14;9.77;;;8.15;;
9465;SDS011;4771;48.726;9.006;2022-09-30T08:51:53;14.02;;;9.00;;
9465;SDS011;4771;48.726;9.006;2022-09-30T08:54:22;9.85;;;7.22;;
9465;SDS011;4771;48.726;9.006;2022-09-30T08:56:52;10.70;;;7.30;;
9465;SDS011;4771;48.726;9.006;2022-09-30T08:59:22;10.38;;;7.65;;
9465;SDS011;4771;48.726;9.006;2022-09-30T09:01:57;10.85;;;7.03;;
9465;SDS011;4771;48.726;9.006;2022-09-30T09:04:27;8.52;;;6.95;;
9465;SDS011;4771;48.726;9.006;2022-09-30T09:06:55;7.90;;;6.13;;
9465;SDS011;4771;48.726;9.006;2022-09-30T09:09:32;9.52;;;6.20;;
9465;SDS011;4771;48.726;9.006;2022-09-30T09:12:13;11.63;;;6.55;;
9465;SDS011;4771;48.726;9.006;2022-09-30T09:14:57;8.77;;;5.25;;
9465;SDS011;4771;48.726;9.006;2022-09-30T09:17:38;10.18;;;5.55;;
9465;SDS011;4771;48.726;9.006;2022-09-30T09:20:16;8.52;;;5.57;;
9465;SDS011;4771;48.726;9.006;2022-09-30T09:22:46;7.28;;;4.57;;
9465;SDS011;4771;48.726;9.006;2022-09-30T09:25:14;6.75;;;4.28;;
9465;SDS011;4771;48.726;9.006;2022-09-30T09:27:47;5.07;;;4.15;;
9465;SDS011;4771;48.726;9.006;2022-09-30T09:30:18;5.28;;;3.95;;
9465;SDS011;4771;48.726;9.006;2022-09-30T09:32:48;6.18;;;4.10;;
9465;SDS011;4771;48.726;9.006;2022-09-30T09:35:25;4.97;;;3.80;;
9465;SDS011;4771;48.726;9.006;2022-09-30T09:38:09;6.38;;;4.05;;
9465;SDS011;4771;48.726;9.006;2022-09-30T09:41:00;7.25;;;4.53;;
9465;SDS011;4771;48.726;9.006;2022-09-30T09:43:39;7.18;;;3.97;;
9465;SDS011;4771;48.726;9.006;2022-09-30T09:46:15;7.15;;;4.45;;
9465;SDS011;4771;48.726;9.006;2022-09-30T09:48:47;5.40;;;3.88;;
9465;SDS011;4771;48.726;9.006;2022-09-30T09:51:18;6.47;;;4.28;;
9465;SDS011;4771;48.726;9.006;2022-09-30T09:53:51;5.65;;;4.20;;
9465;SDS011;4771;48.726;9.006;2022-09-30T09:56:23;6.20;;;4.13;;
9465;SDS011;4771;48.726;9.006;2022-09-30T09:59:04;5.20;;;4.15;;
9465;SDS011;4771;48.726;9.006;2022-09-30T10:01:33;5.53;;;4.07;;
9465;SDS011;4771;48.726;9.006;2022-09-30T10:04:08;5.80;;;3.92;;
9465;SDS011;4771;48.726;9.006;2022-09-30T10:06:43;6.10;;;4.03;;
9465;SDS011;4771;48.726;9.006;2022-09-30T10:14:59;3.75;;;3.08;;
9465;SDS011;4771;48.726;9.006;2022-09-30T10:17:41;7.50;;;2.88;;
9465;SDS011;4771;48.726;9.006;2022-09-30T10:20:16;3.63;;;2.97;;
9465;SDS011;4771;48.726;9.006;2022-09-30T10:22:48;5.03;;;3.10;;
9465;SDS011;4771;48.726;9.006;2022-09-30T10:25:22;4.05;;;2.90;;
9465;SDS011;4771;48.726;9.006;2022-09-30T10:27:51;5.55;;;3.20;;
9465;SDS011;4771;48.726;9.006;2022-09-30T10:30:31;5.70;;;3.10;;
9465;SDS011;4771;48.726;9.006;2022-09-30T10:33:09;3.92;;;3.28;;
9465;SDS011;4771;48.726;9.006;2022-09-30T10:35:48;7.97;;;3.08;;
9465;SDS011;4771;48.726;9.006;2022-09-30T10:38:20;4.43;;;3.03;;
9465;SDS011;4771;48.726;9.006;2022-09-30T10:40:48;5.00;;;2.60;;
9465;SDS011;4771;48.726;9.006;2022-09-30T10:43:18;5.95;;;3.25;;
9465;SDS011;4771;48.726;9.006;2022-09-30T10:45:50;5.18;;;2.92;;
9465;SDS011;4771;48.726;9.006;2022-09-30T10:48:18;4.32;;;2.92;;
9465;SDS011;4771;48.726;9.006;2022-09-30T10:50:50;4.32;;;2.80;;
9465;SDS011;4771;48.726;9.006;2022-09-30T10:53:19;6.35;;;3.58;;
9465;SDS011;4771;48.726;9.006;2022-09-30T10:55:48;5.10;;;3.00;;
9465;SDS011;4771;48.726;9.006;2022-09-30T10:58:22;5.82;;;3.22;;
9465;SDS011;4771;48.726;9.006;2022-09-30T11:00:56;4.82;;;3.15;;
9465;SDS011;4771;48.726;9.006;2022-09-30T11:03:29;4.20;;;2.60;;
9465;SDS011;4771;48.726;9.006;2022-09-30T11:06:02;6.38;;;2.65;;
9465;SDS011;4771;48.726;9.006;2022-09-30T11:08:33;3.80;;;2.35;;
9465;SDS011;4771;48.726;9.006;2022-09-30T11:11:06;3.28;;;2.40;;
9465;SDS011;4771;48.726;9.006;2022-09-30T11:13:39;3.90;;;2.35;;
9465;SDS011;4771;48.726;9.006;2022-09-30T11:16:14;5.07;;;2.45;;
9465;SDS011;4771;48.726;9.006;2022-09-30T11:18:51;4.53;;;2.40;;
9465;SDS011;4771;48.726;9.006;2022-09-30T11:21:25;3.42;;;2.10;;
9465;SDS011;4771;48.726;9.006;2022-09-30T11:23:59;2.90;;;2.08;;
9465;SDS011;4771;48.726;9.006;2022-09-30T11:26:33;3.85;;;2.28;;
9465;SDS011;4771;48.726;9.006;2022-09-30T11:29:12;4.95;;;2.10;;
9465;SDS011;4771;48.726;9.006;2022-09-30T11:31:53;3.72;;;2.33;;
9465;SDS011;4771;48.726;9.006;2022-09-30T11:34:29;3.00;;;2.00;;
9465;SDS011;4771;48.726;9.006;2022-09-30T11:37:09;2.72;;;2.10;;
9465;SDS011;4771;48.726;9.006;2022-09-30T11:39:58;2.78;;;1.90;;
9465;SDS011;4771;48.726;9.006;2022-09-30T11:42:51;4.25;;;2.42;;
9465;SDS011;4771;48.726;9.006;2022-09-30T11:45:25;2.90;;;2.05;;
9465;SDS011;4771;48.726;9.006;2022-09-30T11:50:51;4.28;;;2.20;;
9465;SDS011;4771;48.726;9.006;2022-09-30T11:53:27;4.80;;;2.20;;
9465;SDS011;4771;48.726;9.006;2022-09-30T11:56:07;5.35;;;2.42;;
9465;SDS011;4771;48.726;9.006;2022-09-30T11:58:47;6.00;;;2.33;;
9465;SDS011;4771;48.726;9.006;2022-09-30T12:01:18;3.20;;;2.10;;
9465;SDS011;4771;48.726;9.006;2022-09-30T12:03:53;2.78;;;1.70;;
9465;SDS011;4771;48.726;9.006;2022-09-30T12:06:27;3.33;;;1.88;;
9465;SDS011;4771;48.726;9.006;2022-09-30T12:09:00;3.78;;;1.77;;
9465;SDS011;4771;48.726;9.006;2022-09-30T12:11:41;3.60;;;1.80;;
9465;SDS011;4771;48.726;9.006;2022-09-30T12:14:14;3.33;;;1.77;;
9465;SDS011;4771;48.726;9.006;2022-09-30T12:16:46;3.42;;;1.80;;
9465;SDS011;4771;48.726;9.006;2022-09-30T12:19:18;2.38;;;1.80;;
9465;SDS011;4771;48.726;9.006;2022-09-30T12:21:52;1.92;;;1.73;;
9465;SDS011;4771;48.726;9.006;2022-09-30T12:24:24;2.53;;;1.80;;
9465;SDS011;4771;48.726;9.006;2022-09-30T12:26:55;3.70;;;1.65;;
9465;SDS011;4771;48.726;9.006;2022-09-30T12:29:24;2.45;;;1.77;;
9465;SDS011;4771;48.726;9.006;2022-09-30T12:35:17;2.97;;;1.70;;
9465;SDS011;4771;48.726;9.006;2022-09-30T12:38:05;3.10;;;1.50;;
9465;SDS011;4771;48.726;9.006;2022-09-30T12:40:51;3.10;;;1.80;;
9465;SDS011;4771;48.726;9.006;2022-09-30T12:46:23;4.07;;;1.83;;
9465;SDS011;4771;48.726;9.006;2022-09-30T12:49:08;4.70;;;1.80;;
9465;SDS011;4771;48.726;9.006;2022-09-30T12:51:41;2.65;;;1.80;;
9465;SDS011;4771;48.726;9.006;2022-09-30T12:54:11;4.07;;;2.10;;
9465;SDS011;4771;48.726;9.006;2022-09-30T12:56:41;4.47;;;2.17;;
9465;SDS011;4771;48.726;9.006;2022-09-30T12:59:11;2.95;;;2.08;;
9465;SDS011;4771;48.726;9.006;2022-09-30T13:01:39;2.42;;;1.90;;
9465;SDS011;4771;48.726;9.006;2022-09-30T13:04:12;4.30;;;2.22;;
9465;SDS011;4771;48.726;9.006;2022-09-30T13:07:09;4.55;;;2.05;;
9465;SDS011;4771;48.726;9.006;2022-09-30T13:09:56;6.07;;;2.08;;
9465;SDS011;4771;48.726;9.006;2022-09-30T13:12:26;4.88;;;2.05;;
9465;SDS011;4771;48.726;9.006;2022-09-30T13:21:16;2.67;;;2.40;;
9465;SDS011;4771;48.726;9.006;2022-09-30T13:23:51;2.40;;;1.88;;
9465;SDS011;4771;48.726;9.006;2022-09-30T13:26:37;3.63;;;2.08;;
9465;SDS011;4771;48.726;9.006;2022-09-30T13:29:26;2.90;;;2.10;;
9465;SDS011;4771;48.726;9.006;2022-09-30T13:32:03;2.45;;;1.83;;
9465;SDS011;4771;48.726;9.006;2022-09-30T13:34:32;3.53;;;1.95;;
9465;SDS011;4771;48.726;9.006;2022-09-30T13:37:27;7.70;;;2.25;;
9465;SDS011;4771;48.726;9.006;2022-09-30T13:39:59;3.97;;;2.25;;
9465;SDS011;4771;48.726;9.006;2022-09-30T13:42:29;2.78;;;2.15;;
9465;SDS011;4771;48.726;9.006;2022-09-30T13:44:59;3.33;;;2.33;;
9465;SDS011;4771;48.726;9.006;2022-09-30T13:47:31;4.57;;;2.58;;
9465;SDS011;4771;48.726;9.006;2022-09-30T13:50:05;3.58;;;2.10;;
9465;SDS011;4771;48.726;9.006;2022-09-30T13:52:40;4.03;;;2.10;;
9465;SDS011;4771;48.726;9.006;2022-09-30T13:55:12;5.55;;;2.33;;
9465;SDS011;4771;48.726;9.006;2022-09-30T13:57:44;3.30;;;1.80;;
9465;SDS011;4771;48.726;9.006;2022-09-30T14:00:20;2.75;;;1.88;;
9465;SDS011;4771;48.726;9.006;2022-09-30T14:05:45;5.78;;;2.20;;
9465;SDS011;4771;48.726;9.006;2022-09-30T14:08:31;3.88;;;2.10;;
9465;SDS011;4771;48.726;9.006;2022-09-30T14:11:24;6.95;;;2.00;;
9465;SDS011;4771;48.726;9.006;2022-09-30T14:14:07;3.65;;;2.20;;
9465;SDS011;4771;48.726;9.006;2022-09-30T14:16:59;4.65;;;2.03;;
9465;SDS011;4771;48.726;9.006;2022-09-30T14:19:45;2.17;;;1.98;;
9465;SDS011;4771;48.726;9.006;2022-09-30T14:22:21;4.35;;;2.20;;
9465;SDS011;4771;48.726;9.006;2022-09-30T14:24:51;3.40;;;2.30;;
9465;SDS011;4771;48.726;9.006;2022-09-30T14:30:10;3.20;;;1.85;;
9465;SDS011;4771;48.726;9.006;2022-09-30T14:32:41;4.13;;;2.10;;
9465;SDS011;4771;48.726;9.006;2022-09-30T14:35:14;4.90;;;2.35;;
9465;SDS011;4771;48.726;9.006;2022-09-30T14:37:44;4.03;;;2.10;;
9465;SDS011;4771;48.726;9.006;2022-09-30T14:40:15;4.38;;;1.98;;
9465;SDS011;4771;48.726;9.006;2022-09-30T14:42:45;1.95;;;1.70;;
9465;SDS011;4771;48.726;9.006;2022-09-30T14:45:16;4.85;;;1.88;;
9465;SDS011;4771;48.726;9.006;2022-09-30T14:47:49;3.80;;;1.80;;
9465;SDS011;4771;48.726;9.006;2022-09-30T14:50:18;3.50;;;1.80;;
9465;SDS011;4771;48.726;9.006;2022-09-30T14:52:50;5.53;;;2.10;;
9465;SDS011;4771;48.726;9.006;2022-09-30T14:55:29;1.88;;;1.70;;
9465;SDS011;4771;48.726;9.006;2022-09-30T15:00:55;4.53;;;1.80;;
9465;SDS011;4771;48.726;9.006;2022-09-30T15:03:26;3.25;;;1.77;;
9465;SDS011;4771;48.726;9.006;2022-09-30T15:05:54;3.38;;;1.73;;
9465;SDS011;4771;48.726;9.006;2022-09-30T15:08:22;2.53;;;1.48;;
9465;SDS011;4771;48.726;9.006;2022-09-30T15:10:50;4.80;;;3.90;;
9465;SDS011;4771;48.726;9.006;2022-09-30T15:13:19;10.10;;;8.07;;
9465;SDS011;4771;48.726;9.006;2022-09-30T15:15:50;2.50;;;1.90;;
9465;SDS011;4771;48.726;9.006;2022-09-30T15:18:26;4.45;;;2.00;;
9465;SDS011;4771;48.726;9.006;2022-09-30T15:20:56;5.72;;;2.70;;
9465;SDS011;4771;48.726;9.006;2022-09-30T15:23:26;5.38;;;2.03;;
9465;SDS011;4771;48.726;9.006;2022-09-30T15:25:55;3.75;;;2.00;;
9465;SDS011;4771;48.726;9.006;2022-09-30T15:28:25;12.93;;;3.97;;
9465;SDS011;4771;48.726;9.006;2022-09-30T15:30:52;2.13;;;1.90;;
9465;SDS011;4771;48.726;9.006;2022-09-30T15:33:22;4.05;;;2.13;;
9465;SDS011;4771;48.726;9.006;2022-09-30T15:35:59;4.65;;;2.40;;
9465;SDS011;4771;48.726;9.006;2022-09-30T15:38:27;4.97;;;2.20;;
9465;SDS011;4771;48.726;9.006;2022-09-30T15:40:57;6.43;;;2.15;;
9465;SDS011;4771;48.726;9.006;2022-09-30T15:43:38;2.30;;;1.90;;
9465;SDS011;4771;48.726;9.006;2022-09-30T15:48:58;4.82;;;1.98;;
9465;SDS011;4771;48.726;9.006;2022-09-30T15:51:33;4.03;;;1.73;;
9465;SDS011;4771;48.726;9.006;2022-09-30T15:54:23;4.47;;;2.10;;
9465;SDS011;4771;48.726;9.006;2022-09-30T15:56:59;3.35;;;1.75;;
9465;SDS011;4771;48.726;9.006;2022-09-30T16:02:26;3.95;;;2.13;;
9465;SDS011;4771;48.726;9.006;2022-09-30T16:04:54;6.45;;;2.20;;
9465;SDS011;4771;48.726;9.006;2022-09-30T16:07:21;4.97;;;2.15;;
9465;SDS011;4771;48.726;9.006;2022-09-30T16:09:52;5.25;;;2.90;;
9465;SDS011;4771;48.726;9.006;2022-09-30T16:12:21;5.70;;;2.03;;
9465;SDS011;4771;48.726;9.006;2022-09-30T16:14:52;4.55;;;1.90;;
9465;SDS011;4771;48.726;9.006;2022-09-30T16:17:23;3.10;;;1.85;;
9465;SDS011;4771;48.726;9.006;2022-09-30T16:19:53;5.03;;;1.90;;
9465;SDS011;4771;48.726;9.006;2022-09-30T16:22:33;3.47;;;2.00;;
9465;SDS011;4771;48.726;9.006;2022-09-30T16:25:07;3.55;;;2.35;;